sensor_id;sensor_type;location;lat;lon;timestamp;P1;durP1;ratioP1;P2;durP2;ratioP2
62707;SDS011;48769;51.624;5.886;2024-02-16T00:00:02;8.25;;;3.30;;
62707;SDS011;48769;51.624;5.886;2024-02-16T00:02:28;8.20;;;4.88;;
62707;SDS011;48769;51.624;5.886;2024-02-16T00:04:53;7.90;;;3.58;;
62707;SDS011;48769;51.624;5.886;2024-02-16T00:07:20;5.53;;;3.55;;
62707;SDS011;48769;51.624;5.886;2024-02-16T00:09:45;7.25;;;3.80;;
62707;SDS011;48769;51.624;5.886;2024-02-16T00:12:10;8.98;;;3.33;;
62707;SDS011;48769;51.624;5.886;2024-02-16T00:14:36;8.80;;;3.63;;
62707;SDS011;48769;51.624;5.886;2024-02-16T00:17:01;9.95;;;3.88;;
62707;SDS011;48769;51.624;5.886;2024-02-16T00:19:27;9.18;;;4.20;;
62707;SDS011;48769;51.624;5.886;2024-02-16T00:21:52;7.45;;;3.55;;
62707;SDS011;48769;51.624;5.886;2024-02-16T00:24:18;5.75;;;3.90;;
62707;SDS011;48769;51.624;5.886;2024-02-16T00:26:43;9.05;;;3.60;;
62707;SDS011;48769;51.624;5.886;2024-02-16T00:29:10;6.20;;;3.45;;
62707;SDS011;48769;51.624;5.886;2024-02-16T00:31:35;9.68;;;3.55;;
62707;SDS011;48769;51.624;5.886;2024-02-16T00:34:01;11.00;;;4.75;;
62707;SDS011;48769;51.624;5.886;2024-02-16T00:36:26;11.82;;;3.70;;
62707;SDS011;48769;51.624;5.886;2024-02-16T00:38:52;10.68;;;3.47;;
62707;SDS011;48769;51.624;5.886;2024-02-16T00:41:21;9.70;;;3.60;;
62707;SDS011;48769;51.624;5.886;2024-02-16T00:43:47;9.57;;;3.92;;
62707;SDS011;48769;51.624;5.886;2024-02-16T00:46:13;6.57;;;3.35;;
62707;SDS011;48769;51.624;5.886;2024-02-16T00:48:39;8.25;;;3.60;;
62707;SDS011;48769;51.624;5.886;2024-02-16T00:51:04;5.70;;;3.47;;
62707;SDS011;48769;51.624;5.886;2024-02-16T00:53:29;5.85;;;3.47;;
62707;SDS011;48769;51.624;5.886;2024-02-16T00:55:55;8.15;;;3.97;;
62707;SDS011;48769;51.624;5.886;2024-02-16T00:58:20;9.15;;;3.83;;
62707;SDS011;48769;51.624;5.886;2024-02-16T01:00:45;5.90;;;3.40;;
62707;SDS011;48769;51.624;5.886;2024-02-16T01:03:11;8.55;;;3.72;;
62707;SDS011;48769;51.624;5.886;2024-02-16T01:05:37;8.35;;;3.80;;
62707;SDS011;48769;51.624;5.886;2024-02-16T01:08:04;4.72;;;3.30;;
62707;SDS011;48769;51.624;5.886;2024-02-16T01:10:29;9.63;;;3.25;;
62707;SDS011;48769;51.624;5.886;2024-02-16T01:12:54;6.43;;;3.83;;
62707;SDS011;48769;51.624;5.886;2024-02-16T01:15:21;6.63;;;3.28;;
62707;SDS011;48769;51.624;5.886;2024-02-16T01:17:46;6.45;;;3.67;;
62707;SDS011;48769;51.624;5.886;2024-02-16T01:20:12;7.20;;;4.15;;
62707;SDS011;48769;51.624;5.886;2024-02-16T01:22:38;10.30;;;4.13;;
62707;SDS011;48769;51.624;5.886;2024-02-16T01:25:04;6.63;;;4.50;;
62707;SDS011;48769;51.624;5.886;2024-02-16T01:27:30;6.38;;;4.05;;
62707;SDS011;48769;51.624;5.886;2024-02-16T01:29:56;7.32;;;4.28;;
62707;SDS011;48769;51.624;5.886;2024-02-16T01:32:22;9.15;;;3.80;;
62707;SDS011;48769;51.624;5.886;2024-02-16T01:34:47;7.70;;;4.05;;
62707;SDS011;48769;51.624;5.886;2024-02-16T01:37:15;8.32;;;4.28;;
62707;SDS011;48769;51.624;5.886;2024-02-16T01:39:41;8.43;;;4.25;;
62707;SDS011;48769;51.624;5.886;2024-02-16T01:42:07;8.43;;;4.32;;
62707;SDS011;48769;51.624;5.886;2024-02-16T01:44:32;10.65;;;5.13;;
62707;SDS011;48769;51.624;5.886;2024-02-16T01:46:57;9.38;;;5.03;;
62707;SDS011;48769;51.624;5.886;2024-02-16T01:49:23;8.77;;;4.35;;
62707;SDS011;48769;51.624;5.886;2024-02-16T01:51:48;8.38;;;4.20;;
62707;SDS011;48769;51.624;5.886;2024-02-16T01:54:14;5.88;;;4.22;;
62707;SDS011;48769;51.624;5.886;2024-02-16T01:56:42;11.18;;;4.20;;
62707;SDS011;48769;51.624;5.886;2024-02-16T01:59:09;9.18;;;4.80;;
62707;SDS011;48769;51.624;5.886;2024-02-16T02:01:34;7.88;;;4.53;;
62707;SDS011;48769;51.624;5.886;2024-02-16T02:04:00;8.13;;;4.90;;
62707;SDS011;48769;51.624;5.886;2024-02-16T02:06:26;9.52;;;4.70;;
62707;SDS011;48769;51.624;5.886;2024-02-16T02:08:52;8.60;;;4.70;;
62707;SDS011;48769;51.624;5.886;2024-02-16T02:11:17;6.28;;;4.55;;
62707;SDS011;48769;51.624;5.886;2024-02-16T02:13:42;7.80;;;4.75;;
62707;SDS011;48769;51.624;5.886;2024-02-16T02:16:08;11.43;;;4.90;;
62707;SDS011;48769;51.624;5.886;2024-02-16T02:18:35;9.13;;;5.35;;
62707;SDS011;48769;51.624;5.886;2024-02-16T02:21:00;6.25;;;4.10;;
62707;SDS011;48769;51.624;5.886;2024-02-16T02:23:25;8.85;;;4.72;;
62707;SDS011;48769;51.624;5.886;2024-02-16T02:25:51;9.60;;;5.05;;
62707;SDS011;48769;51.624;5.886;2024-02-16T02:28:16;7.22;;;4.50;;
62707;SDS011;48769;51.624;5.886;2024-02-16T02:30:42;6.50;;;4.45;;
62707;SDS011;48769;51.624;5.886;2024-02-16T02:33:10;4.95;;;3.78;;
62707;SDS011;48769;51.624;5.886;2024-02-16T02:35:37;6.32;;;5.00;;
62707;SDS011;48769;51.624;5.886;2024-02-16T02:38:03;7.75;;;4.32;;
62707;SDS011;48769;51.624;5.886;2024-02-16T02:40:29;6.35;;;3.67;;
62707;SDS011;48769;51.624;5.886;2024-02-16T02:42:54;7.25;;;4.10;;
62707;SDS011;48769;51.624;5.886;2024-02-16T02:45:20;10.10;;;4.35;;
62707;SDS011;48769;51.624;5.886;2024-02-16T02:47:46;7.82;;;4.07;;
62707;SDS011;48769;51.624;5.886;2024-02-16T02:50:11;6.63;;;3.90;;
62707;SDS011;48769;51.624;5.886;2024-02-16T02:52:37;11.40;;;4.07;;
62707;SDS011;48769;51.624;5.886;2024-02-16T02:55:02;12.48;;;4.53;;
62707;SDS011;48769;51.624;5.886;2024-02-16T02:57:28;7.65;;;3.80;;
62707;SDS011;48769;51.624;5.886;2024-02-16T02:59:53;8.98;;;4.00;;
62707;SDS011;48769;51.624;5.886;2024-02-16T03:02:29;6.72;;;3.72;;
62707;SDS011;48769;51.624;5.886;2024-02-16T03:04:54;6.50;;;4.03;;
62707;SDS011;48769;51.624;5.886;2024-02-16T03:07:19;7.20;;;4.00;;
62707;SDS011;48769;51.624;5.886;2024-02-16T03:09:45;8.10;;;3.65;;
62707;SDS011;48769;51.624;5.886;2024-02-16T03:12:11;7.63;;;3.75;;
62707;SDS011;48769;51.624;5.886;2024-02-16T03:14:37;5.57;;;4.10;;
62707;SDS011;48769;51.624;5.886;2024-02-16T03:17:02;6.97;;;3.92;;
62707;SDS011;48769;51.624;5.886;2024-02-16T03:19:28;8.45;;;4.10;;
62707;SDS011;48769;51.624;5.886;2024-02-16T03:21:54;7.22;;;3.75;;
62707;SDS011;48769;51.624;5.886;2024-02-16T03:24:20;7.30;;;3.75;;
62707;SDS011;48769;51.624;5.886;2024-02-16T03:26:45;6.15;;;3.90;;
62707;SDS011;48769;51.624;5.886;2024-02-16T03:29:12;8.40;;;3.67;;
62707;SDS011;48769;51.624;5.886;2024-02-16T03:31:38;8.02;;;3.95;;
62707;SDS011;48769;51.624;5.886;2024-02-16T03:34:04;10.07;;;3.75;;
62707;SDS011;48769;51.624;5.886;2024-02-16T03:36:29;7.70;;;3.88;;
62707;SDS011;48769;51.624;5.886;2024-02-16T03:38:55;11.55;;;4.00;;
62707;SDS011;48769;51.624;5.886;2024-02-16T03:41:21;8.93;;;4.07;;
62707;SDS011;48769;51.624;5.886;2024-02-16T03:43:48;11.00;;;3.85;;
62707;SDS011;48769;51.624;5.886;2024-02-16T03:46:14;9.48;;;4.65;;
62707;SDS011;48769;51.624;5.886;2024-02-16T03:48:40;6.07;;;4.47;;
62707;SDS011;48769;51.624;5.886;2024-02-16T03:51:05;7.47;;;3.90;;
62707;SDS011;48769;51.624;5.886;2024-02-16T03:53:31;5.30;;;3.83;;
62707;SDS011;48769;51.624;5.886;2024-02-16T03:55:57;8.30;;;4.00;;
62707;SDS011;48769;51.624;5.886;2024-02-16T03:58:22;6.18;;;4.10;;
62707;SDS011;48769;51.624;5.886;2024-02-16T04:00:48;6.97;;;4.25;;
62707;SDS011;48769;51.624;5.886;2024-02-16T04:03:14;7.50;;;4.22;;
62707;SDS011;48769;51.624;5.886;2024-02-16T04:05:39;7.10;;;4.43;;
62707;SDS011;48769;51.624;5.886;2024-02-16T04:08:07;7.03;;;4.53;;
62707;SDS011;48769;51.624;5.886;2024-02-16T04:10:33;7.65;;;4.30;;
62707;SDS011;48769;51.624;5.886;2024-02-16T04:12:59;10.77;;;4.78;;
62707;SDS011;48769;51.624;5.886;2024-02-16T04:15:25;5.82;;;4.38;;
62707;SDS011;48769;51.624;5.886;2024-02-16T04:17:51;7.35;;;4.70;;
62707;SDS011;48769;51.624;5.886;2024-02-16T04:20:16;9.10;;;4.50;;
62707;SDS011;48769;51.624;5.886;2024-02-16T04:22:42;8.63;;;4.93;;
62707;SDS011;48769;51.624;5.886;2024-02-16T04:25:08;10.77;;;5.47;;
62707;SDS011;48769;51.624;5.886;2024-02-16T04:27:34;7.97;;;4.75;;
62707;SDS011;48769;51.624;5.886;2024-02-16T04:30:00;8.57;;;4.85;;
62707;SDS011;48769;51.624;5.886;2024-02-16T04:32:26;5.10;;;4.05;;
62707;SDS011;48769;51.624;5.886;2024-02-16T04:34:51;8.15;;;4.88;;
62707;SDS011;48769;51.624;5.886;2024-02-16T04:37:17;6.35;;;4.13;;
62707;SDS011;48769;51.624;5.886;2024-02-16T04:39:43;7.40;;;4.28;;
62707;SDS011;48769;51.624;5.886;2024-02-16T04:42:09;7.75;;;4.72;;
62707;SDS011;48769;51.624;5.886;2024-02-16T04:44:38;10.27;;;5.18;;
62707;SDS011;48769;51.624;5.886;2024-02-16T04:47:03;9.13;;;4.90;;
62707;SDS011;48769;51.624;5.886;2024-02-16T04:49:29;7.65;;;4.95;;
62707;SDS011;48769;51.624;5.886;2024-02-16T04:51:55;8.40;;;5.00;;
62707;SDS011;48769;51.624;5.886;2024-02-16T04:54:20;6.85;;;5.32;;
62707;SDS011;48769;51.624;5.886;2024-02-16T04:56:45;8.50;;;5.25;;
62707;SDS011;48769;51.624;5.886;2024-02-16T04:59:11;6.78;;;5.03;;
62707;SDS011;48769;51.624;5.886;2024-02-16T05:01:36;8.32;;;4.68;;
62707;SDS011;48769;51.624;5.886;2024-02-16T05:04:01;9.18;;;5.22;;
62707;SDS011;48769;51.624;5.886;2024-02-16T05:06:27;7.35;;;5.07;;
62707;SDS011;48769;51.624;5.886;2024-02-16T05:08:52;10.98;;;4.80;;
62707;SDS011;48769;51.624;5.886;2024-02-16T05:11:18;9.65;;;5.13;;
62707;SDS011;48769;51.624;5.886;2024-02-16T05:13:44;7.72;;;5.38;;
62707;SDS011;48769;51.624;5.886;2024-02-16T05:16:10;7.82;;;5.05;;
62707;SDS011;48769;51.624;5.886;2024-02-16T05:18:36;7.82;;;4.82;;
62707;SDS011;48769;51.624;5.886;2024-02-16T05:21:02;9.25;;;5.38;;
62707;SDS011;48769;51.624;5.886;2024-02-16T05:23:27;7.28;;;5.05;;
62707;SDS011;48769;51.624;5.886;2024-02-16T05:25:52;8.60;;;5.38;;
62707;SDS011;48769;51.624;5.886;2024-02-16T05:28:19;10.55;;;5.28;;
62707;SDS011;48769;51.624;5.886;2024-02-16T05:30:44;10.45;;;5.10;;
62707;SDS011;48769;51.624;5.886;2024-02-16T05:33:10;10.88;;;5.32;;
62707;SDS011;48769;51.624;5.886;2024-02-16T05:35:36;7.80;;;5.05;;
62707;SDS011;48769;51.624;5.886;2024-02-16T05:38:05;8.82;;;4.97;;
62707;SDS011;48769;51.624;5.886;2024-02-16T05:40:32;9.15;;;5.40;;
62707;SDS011;48769;51.624;5.886;2024-02-16T05:43:08;8.95;;;5.32;;
62707;SDS011;48769;51.624;5.886;2024-02-16T05:45:34;8.65;;;5.13;;
62707;SDS011;48769;51.624;5.886;2024-02-16T05:48:00;13.00;;;5.70;;
62707;SDS011;48769;51.624;5.886;2024-02-16T05:50:26;14.30;;;5.55;;
62707;SDS011;48769;51.624;5.886;2024-02-16T05:52:51;9.50;;;5.00;;
62707;SDS011;48769;51.624;5.886;2024-02-16T05:55:17;7.55;;;4.72;;
62707;SDS011;48769;51.624;5.886;2024-02-16T05:57:45;9.70;;;5.13;;
62707;SDS011;48769;51.624;5.886;2024-02-16T06:00:11;7.32;;;4.80;;
62707;SDS011;48769;51.624;5.886;2024-02-16T06:02:38;7.53;;;5.18;;
62707;SDS011;48769;51.624;5.886;2024-02-16T06:05:03;11.77;;;5.07;;
62707;SDS011;48769;51.624;5.886;2024-02-16T06:07:29;9.77;;;4.88;;
62707;SDS011;48769;51.624;5.886;2024-02-16T06:09:55;9.07;;;4.30;;
62707;SDS011;48769;51.624;5.886;2024-02-16T06:12:21;9.00;;;4.20;;
62707;SDS011;48769;51.624;5.886;2024-02-16T06:14:47;10.35;;;4.93;;
62707;SDS011;48769;51.624;5.886;2024-02-16T06:17:13;8.73;;;4.82;;
62707;SDS011;48769;51.624;5.886;2024-02-16T06:19:42;7.75;;;4.38;;
62707;SDS011;48769;51.624;5.886;2024-02-16T06:22:08;16.02;;;5.13;;
62707;SDS011;48769;51.624;5.886;2024-02-16T06:24:34;9.93;;;5.00;;
62707;SDS011;48769;51.624;5.886;2024-02-16T06:27:00;7.57;;;4.50;;
62707;SDS011;48769;51.624;5.886;2024-02-16T06:29:26;7.63;;;3.88;;
62707;SDS011;48769;51.624;5.886;2024-02-16T06:31:52;6.72;;;4.63;;
62707;SDS011;48769;51.624;5.886;2024-02-16T06:34:17;8.27;;;4.63;;
62707;SDS011;48769;51.624;5.886;2024-02-16T06:36:43;9.20;;;4.45;;
62707;SDS011;48769;51.624;5.886;2024-02-16T06:39:09;9.43;;;4.75;;
62707;SDS011;48769;51.624;5.886;2024-02-16T06:41:37;8.23;;;4.88;;
62707;SDS011;48769;51.624;5.886;2024-02-16T06:44:04;6.38;;;4.60;;
62707;SDS011;48769;51.624;5.886;2024-02-16T06:46:29;7.90;;;4.85;;
62707;SDS011;48769;51.624;5.886;2024-02-16T06:48:55;8.70;;;5.05;;
62707;SDS011;48769;51.624;5.886;2024-02-16T06:51:22;7.93;;;4.65;;
62707;SDS011;48769;51.624;5.886;2024-02-16T06:53:48;8.32;;;5.07;;
62707;SDS011;48769;51.624;5.886;2024-02-16T06:58:49;9.30;;;4.97;;
62707;SDS011;48769;51.624;5.886;2024-02-16T07:01:14;7.95;;;4.72;;
62707;SDS011;48769;51.624;5.886;2024-02-16T07:03:40;10.30;;;5.25;;
62707;SDS011;48769;51.624;5.886;2024-02-16T07:06:06;9.15;;;4.47;;
62707;SDS011;48769;51.624;5.886;2024-02-16T07:08:35;6.43;;;4.40;;
62707;SDS011;48769;51.624;5.886;2024-02-16T07:11:01;9.15;;;5.10;;
62707;SDS011;48769;51.624;5.886;2024-02-16T07:13:28;9.20;;;5.25;;
62707;SDS011;48769;51.624;5.886;2024-02-16T07:15:54;11.60;;;5.65;;
62707;SDS011;48769;51.624;5.886;2024-02-16T07:18:19;12.45;;;5.97;;
62707;SDS011;48769;51.624;5.886;2024-02-16T07:20:46;9.60;;;5.20;;
62707;SDS011;48769;51.624;5.886;2024-02-16T07:23:12;11.20;;;5.55;;
62707;SDS011;48769;51.624;5.886;2024-02-16T07:25:38;13.13;;;6.50;;
62707;SDS011;48769;51.624;5.886;2024-02-16T07:28:03;8.57;;;5.47;;
62707;SDS011;48769;51.624;5.886;2024-02-16T07:30:29;13.23;;;5.75;;
62707;SDS011;48769;51.624;5.886;2024-02-16T07:32:55;9.32;;;5.43;;
62707;SDS011;48769;51.624;5.886;2024-02-16T07:35:21;11.10;;;5.65;;
62707;SDS011;48769;51.624;5.886;2024-02-16T07:37:49;12.38;;;4.95;;
62707;SDS011;48769;51.624;5.886;2024-02-16T07:40:18;9.10;;;5.30;;
62707;SDS011;48769;51.624;5.886;2024-02-16T07:42:44;13.38;;;5.68;;
62707;SDS011;48769;51.624;5.886;2024-02-16T07:45:10;14.40;;;5.40;;
62707;SDS011;48769;51.624;5.886;2024-02-16T07:47:37;7.68;;;4.30;;
62707;SDS011;48769;51.624;5.886;2024-02-16T07:50:11;7.13;;;4.40;;
62707;SDS011;48769;51.624;5.886;2024-02-16T07:52:37;10.50;;;4.60;;
62707;SDS011;48769;51.624;5.886;2024-02-16T07:55:04;12.77;;;5.70;;
62707;SDS011;48769;51.624;5.886;2024-02-16T07:57:30;6.90;;;4.30;;
62707;SDS011;48769;51.624;5.886;2024-02-16T07:59:56;9.68;;;4.40;;
62707;SDS011;48769;51.624;5.886;2024-02-16T08:02:21;7.78;;;4.03;;
62707;SDS011;48769;51.624;5.886;2024-02-16T08:04:51;10.48;;;4.97;;
62707;SDS011;48769;51.624;5.886;2024-02-16T08:07:17;6.80;;;3.97;;
62707;SDS011;48769;51.624;5.886;2024-02-16T08:09:46;12.90;;;4.60;;
62707;SDS011;48769;51.624;5.886;2024-02-16T08:12:12;9.23;;;4.10;;
62707;SDS011;48769;51.624;5.886;2024-02-16T08:14:39;9.68;;;4.78;;
62707;SDS011;48769;51.624;5.886;2024-02-16T08:17:05;10.80;;;4.72;;
62707;SDS011;48769;51.624;5.886;2024-02-16T08:19:35;7.00;;;4.40;;
62707;SDS011;48769;51.624;5.886;2024-02-16T08:22:02;7.85;;;4.18;;
62707;SDS011;48769;51.624;5.886;2024-02-16T08:24:29;12.38;;;4.43;;
62707;SDS011;48769;51.624;5.886;2024-02-16T08:26:57;14.02;;;4.93;;
62707;SDS011;48769;51.624;5.886;2024-02-16T08:29:22;9.48;;;3.97;;
62707;SDS011;48769;51.624;5.886;2024-02-16T08:31:51;9.13;;;4.25;;
62707;SDS011;48769;51.624;5.886;2024-02-16T08:34:17;11.88;;;4.50;;
62707;SDS011;48769;51.624;5.886;2024-02-16T08:36:43;9.30;;;5.22;;
62707;SDS011;48769;51.624;5.886;2024-02-16T08:39:09;8.75;;;4.35;;
62707;SDS011;48769;51.624;5.886;2024-02-16T08:41:36;12.88;;;5.40;;
62707;SDS011;48769;51.624;5.886;2024-02-16T08:44:02;14.15;;;4.57;;
62707;SDS011;48769;51.624;5.886;2024-02-16T08:46:28;9.88;;;4.70;;
62707;SDS011;48769;51.624;5.886;2024-02-16T08:48:54;14.30;;;4.95;;
62707;SDS011;48769;51.624;5.886;2024-02-16T08:51:23;10.10;;;3.97;;
62707;SDS011;48769;51.624;5.886;2024-02-16T08:53:48;12.95;;;4.95;;
62707;SDS011;48769;51.624;5.886;2024-02-16T08:56:13;7.97;;;4.05;;
62707;SDS011;48769;51.624;5.886;2024-02-16T08:58:39;7.85;;;4.70;;
62707;SDS011;48769;51.624;5.886;2024-02-16T09:01:13;9.88;;;4.82;;
62707;SDS011;48769;51.624;5.886;2024-02-16T09:03:49;8.13;;;4.47;;
62707;SDS011;48769;51.624;5.886;2024-02-16T09:06:15;7.35;;;4.72;;
62707;SDS011;48769;51.624;5.886;2024-02-16T09:08:40;10.32;;;5.03;;
62707;SDS011;48769;51.624;5.886;2024-02-16T09:11:06;11.73;;;5.32;;
62707;SDS011;48769;51.624;5.886;2024-02-16T09:13:32;10.15;;;5.05;;
62707;SDS011;48769;51.624;5.886;2024-02-16T09:15:57;9.70;;;4.90;;
62707;SDS011;48769;51.624;5.886;2024-02-16T09:18:23;15.52;;;5.32;;
62707;SDS011;48769;51.624;5.886;2024-02-16T09:20:48;14.75;;;5.10;;
62707;SDS011;48769;51.624;5.886;2024-02-16T09:23:13;8.85;;;4.18;;
62707;SDS011;48769;51.624;5.886;2024-02-16T09:25:39;12.63;;;5.70;;
62707;SDS011;48769;51.624;5.886;2024-02-16T09:28:05;11.85;;;5.57;;
62707;SDS011;48769;51.624;5.886;2024-02-16T09:30:32;10.40;;;5.28;;
62707;SDS011;48769;51.624;5.886;2024-02-16T09:32:57;12.18;;;5.07;;
62707;SDS011;48769;51.624;5.886;2024-02-16T09:35:23;10.13;;;4.95;;
62707;SDS011;48769;51.624;5.886;2024-02-16T09:37:48;16.63;;;5.22;;
62707;SDS011;48769;51.624;5.886;2024-02-16T09:40:13;11.18;;;5.10;;
62707;SDS011;48769;51.624;5.886;2024-02-16T09:42:40;10.55;;;4.85;;
62707;SDS011;48769;51.624;5.886;2024-02-16T09:45:06;10.27;;;5.43;;
62707;SDS011;48769;51.624;5.886;2024-02-16T09:47:32;11.48;;;4.78;;
62707;SDS011;48769;51.624;5.886;2024-02-16T09:50:00;9.75;;;5.20;;
62707;SDS011;48769;51.624;5.886;2024-02-16T09:52:26;16.08;;;5.10;;
62707;SDS011;48769;51.624;5.886;2024-02-16T09:54:51;9.70;;;5.53;;
62707;SDS011;48769;51.624;5.886;2024-02-16T09:57:17;10.07;;;4.75;;
62707;SDS011;48769;51.624;5.886;2024-02-16T09:59:43;14.32;;;5.85;;
62707;SDS011;48769;51.624;5.886;2024-02-16T10:02:08;9.90;;;5.50;;
62707;SDS011;48769;51.624;5.886;2024-02-16T10:04:34;7.38;;;4.85;;
62707;SDS011;48769;51.624;5.886;2024-02-16T10:07:00;15.27;;;6.68;;
62707;SDS011;48769;51.624;5.886;2024-02-16T10:09:26;8.77;;;4.93;;
62707;SDS011;48769;51.624;5.886;2024-02-16T10:11:54;10.55;;;5.78;;
62707;SDS011;48769;51.624;5.886;2024-02-16T10:14:19;15.18;;;5.88;;
62707;SDS011;48769;51.624;5.886;2024-02-16T10:16:45;13.65;;;6.47;;
62707;SDS011;48769;51.624;5.886;2024-02-16T10:19:12;9.82;;;6.20;;
62707;SDS011;48769;51.624;5.886;2024-02-16T10:21:38;13.32;;;6.78;;
62707;SDS011;48769;51.624;5.886;2024-02-16T10:24:07;10.07;;;6.82;;
62707;SDS011;48769;51.624;5.886;2024-02-16T10:26:34;15.13;;;6.82;;
62707;SDS011;48769;51.624;5.886;2024-02-16T10:29:04;12.90;;;6.57;;
62707;SDS011;48769;51.624;5.886;2024-02-16T10:31:30;13.90;;;6.45;;
62707;SDS011;48769;51.624;5.886;2024-02-16T10:33:58;11.68;;;6.88;;
62707;SDS011;48769;51.624;5.886;2024-02-16T10:36:25;9.07;;;6.18;;
62707;SDS011;48769;51.624;5.886;2024-02-16T10:38:53;11.07;;;6.90;;
62707;SDS011;48769;51.624;5.886;2024-02-16T10:41:21;14.90;;;7.03;;
62707;SDS011;48769;51.624;5.886;2024-02-16T10:43:51;17.20;;;7.60;;
62707;SDS011;48769;51.624;5.886;2024-02-16T10:46:18;19.50;;;10.00;;
62707;SDS011;48769;51.624;5.886;2024-02-16T10:48:44;16.75;;;10.02;;
62707;SDS011;48769;51.624;5.886;2024-02-16T10:51:10;16.90;;;8.07;;
62707;SDS011;48769;51.624;5.886;2024-02-16T10:53:39;14.52;;;7.43;;
62707;SDS011;48769;51.624;5.886;2024-02-16T10:56:06;13.95;;;7.15;;
62707;SDS011;48769;51.624;5.886;2024-02-16T10:58:32;14.65;;;7.22;;
62707;SDS011;48769;51.624;5.886;2024-02-16T11:01:07;16.05;;;7.65;;
62707;SDS011;48769;51.624;5.886;2024-02-16T11:03:33;11.13;;;7.15;;
62707;SDS011;48769;51.624;5.886;2024-02-16T11:05:58;11.95;;;7.25;;
62707;SDS011;48769;51.624;5.886;2024-02-16T11:08:24;15.07;;;7.22;;
62707;SDS011;48769;51.624;5.886;2024-02-16T11:10:55;16.92;;;7.57;;
62707;SDS011;48769;51.624;5.886;2024-02-16T11:13:25;15.90;;;8.13;;
62707;SDS011;48769;51.624;5.886;2024-02-16T11:15:56;14.73;;;8.32;;
62707;SDS011;48769;51.624;5.886;2024-02-16T11:18:26;19.23;;;8.20;;
62707;SDS011;48769;51.624;5.886;2024-02-16T11:20:55;15.20;;;7.88;;
62707;SDS011;48769;51.624;5.886;2024-02-16T11:23:29;16.67;;;8.20;;
62707;SDS011;48769;51.624;5.886;2024-02-16T11:26:02;13.52;;;7.88;;
62707;SDS011;48769;51.624;5.886;2024-02-16T11:28:32;14.35;;;8.52;;
62707;SDS011;48769;51.624;5.886;2024-02-16T11:30:59;17.65;;;8.88;;
62707;SDS011;48769;51.624;5.886;2024-02-16T11:33:25;15.55;;;9.20;;
62707;SDS011;48769;51.624;5.886;2024-02-16T11:35:53;14.98;;;8.50;;
62707;SDS011;48769;51.624;5.886;2024-02-16T11:38:20;16.42;;;9.35;;
62707;SDS011;48769;51.624;5.886;2024-02-16T11:41:07;16.88;;;9.05;;
62707;SDS011;48769;51.624;5.886;2024-02-16T11:43:34;12.10;;;8.60;;
62707;SDS011;48769;51.624;5.886;2024-02-16T11:45:59;15.48;;;9.32;;
62707;SDS011;48769;51.624;5.886;2024-02-16T11:48:36;17.80;;;9.65;;
62707;SDS011;48769;51.624;5.886;2024-02-16T11:51:02;16.70;;;9.55;;
62707;SDS011;48769;51.624;5.886;2024-02-16T11:53:29;14.68;;;8.65;;
62707;SDS011;48769;51.624;5.886;2024-02-16T11:55:55;14.63;;;9.30;;
62707;SDS011;48769;51.624;5.886;2024-02-16T11:58:20;18.38;;;10.15;;
62707;SDS011;48769;51.624;5.886;2024-02-16T12:00:47;20.48;;;9.55;;
62707;SDS011;48769;51.624;5.886;2024-02-16T12:03:18;20.88;;;10.02;;
62707;SDS011;48769;51.624;5.886;2024-02-16T12:05:54;17.80;;;10.10;;
62707;SDS011;48769;51.624;5.886;2024-02-16T12:08:21;18.08;;;10.60;;
62707;SDS011;48769;51.624;5.886;2024-02-16T12:10:47;24.33;;;11.10;;
62707;SDS011;48769;51.624;5.886;2024-02-16T12:13:15;19.40;;;10.80;;
62707;SDS011;48769;51.624;5.886;2024-02-16T12:15:43;21.98;;;10.98;;
62707;SDS011;48769;51.624;5.886;2024-02-16T12:18:10;16.08;;;11.27;;
62707;SDS011;48769;51.624;5.886;2024-02-16T12:20:35;18.30;;;10.70;;
62707;SDS011;48769;51.624;5.886;2024-02-16T12:23:10;19.50;;;11.18;;
62707;SDS011;48769;51.624;5.886;2024-02-16T12:25:36;23.05;;;12.00;;
62707;SDS011;48769;51.624;5.886;2024-02-16T12:28:01;23.10;;;12.40;;
62707;SDS011;48769;51.624;5.886;2024-02-16T12:30:27;19.58;;;12.43;;
62707;SDS011;48769;51.624;5.886;2024-02-16T12:32:52;23.67;;;13.80;;
62707;SDS011;48769;51.624;5.886;2024-02-16T12:35:18;24.00;;;13.52;;
62707;SDS011;48769;51.624;5.886;2024-02-16T12:37:45;22.50;;;13.38;;
62707;SDS011;48769;51.624;5.886;2024-02-16T12:40:10;28.85;;;15.40;;
62707;SDS011;48769;51.624;5.886;2024-02-16T12:42:36;26.67;;;15.55;;
62707;SDS011;48769;51.624;5.886;2024-02-16T12:45:03;33.80;;;16.60;;
62707;SDS011;48769;51.624;5.886;2024-02-16T12:47:28;27.27;;;16.33;;
62707;SDS011;48769;51.624;5.886;2024-02-16T12:49:55;24.05;;;16.30;;
62707;SDS011;48769;51.624;5.886;2024-02-16T12:52:22;24.75;;;17.00;;
62707;SDS011;48769;51.624;5.886;2024-02-16T12:54:48;25.48;;;16.33;;
62707;SDS011;48769;51.624;5.886;2024-02-16T12:57:13;20.10;;;15.88;;
62707;SDS011;48769;51.624;5.886;2024-02-16T12:59:38;23.70;;;17.13;;
62707;SDS011;48769;51.624;5.886;2024-02-16T13:02:04;23.88;;;16.92;;
62707;SDS011;48769;51.624;5.886;2024-02-16T13:04:32;22.33;;;17.77;;
62707;SDS011;48769;51.624;5.886;2024-02-16T13:06:58;24.38;;;16.52;;
62707;SDS011;48769;51.624;5.886;2024-02-16T13:09:23;22.90;;;18.00;;
62707;SDS011;48769;51.624;5.886;2024-02-16T13:11:53;18.60;;;16.48;;
62707;SDS011;48769;51.624;5.886;2024-02-16T13:14:19;22.40;;;17.70;;
62707;SDS011;48769;51.624;5.886;2024-02-16T13:16:45;20.92;;;16.05;;
62707;SDS011;48769;51.624;5.886;2024-02-16T13:19:12;21.45;;;16.65;;
62707;SDS011;48769;51.624;5.886;2024-02-16T13:21:38;23.85;;;17.10;;
62707;SDS011;48769;51.624;5.886;2024-02-16T13:24:06;21.63;;;17.33;;
62707;SDS011;48769;51.624;5.886;2024-02-16T13:26:31;21.20;;;16.88;;
62707;SDS011;48769;51.624;5.886;2024-02-16T13:28:59;24.55;;;18.15;;
62707;SDS011;48769;51.624;5.886;2024-02-16T13:31:25;20.48;;;17.58;;
62707;SDS011;48769;51.624;5.886;2024-02-16T13:33:52;22.42;;;17.70;;
62707;SDS011;48769;51.624;5.886;2024-02-16T13:36:18;21.20;;;17.08;;
62707;SDS011;48769;51.624;5.886;2024-02-16T13:38:44;21.95;;;16.67;;
62707;SDS011;48769;51.624;5.886;2024-02-16T13:41:09;21.48;;;16.85;;
62707;SDS011;48769;51.624;5.886;2024-02-16T13:43:34;18.83;;;16.42;;
62707;SDS011;48769;51.624;5.886;2024-02-16T13:46:00;18.60;;;16.10;;
62707;SDS011;48769;51.624;5.886;2024-02-16T13:48:26;17.92;;;14.48;;
62707;SDS011;48769;51.624;5.886;2024-02-16T13:50:53;18.02;;;14.48;;
62707;SDS011;48769;51.624;5.886;2024-02-16T13:53:19;14.30;;;12.73;;
62707;SDS011;48769;51.624;5.886;2024-02-16T13:55:50;14.63;;;12.85;;
62707;SDS011;48769;51.624;5.886;2024-02-16T13:58:15;19.65;;;15.10;;
62707;SDS011;48769;51.624;5.886;2024-02-16T14:00:41;17.20;;;14.40;;
62707;SDS011;48769;51.624;5.886;2024-02-16T14:03:07;20.27;;;15.57;;
62707;SDS011;48769;51.624;5.886;2024-02-16T14:05:36;23.15;;;18.52;;
62707;SDS011;48769;51.624;5.886;2024-02-16T14:08:05;23.00;;;18.15;;
62707;SDS011;48769;51.624;5.886;2024-02-16T14:10:31;20.23;;;18.05;;
62707;SDS011;48769;51.624;5.886;2024-02-16T14:12:59;23.27;;;17.92;;
62707;SDS011;48769;51.624;5.886;2024-02-16T14:15:25;20.00;;;16.27;;
62707;SDS011;48769;51.624;5.886;2024-02-16T14:17:50;16.52;;;14.82;;
62707;SDS011;48769;51.624;5.886;2024-02-16T14:20:16;22.42;;;17.60;;
62707;SDS011;48769;51.624;5.886;2024-02-16T14:22:41;19.70;;;14.75;;
62707;SDS011;48769;51.624;5.886;2024-02-16T14:25:06;21.20;;;17.25;;
62707;SDS011;48769;51.624;5.886;2024-02-16T14:27:35;18.08;;;14.57;;
62707;SDS011;48769;51.624;5.886;2024-02-16T14:30:00;17.85;;;14.95;;
62707;SDS011;48769;51.624;5.886;2024-02-16T14:32:26;25.30;;;18.63;;
62707;SDS011;48769;51.624;5.886;2024-02-16T14:34:51;18.67;;;15.18;;